KFAT/FAT METAR and TAF weather

Enter ICAO airport designator
Station Type Date Time Source
KFAT METAR 2021/04/13 22:53 UTC NOAA

KFAT 132253Z 28013G19KT 10SM FEW095 26/00 A2976 RMK AO2 SLP073 T02560000 $


Station Type Date Time Source
KFAT Decoded METAR 2021/04/13 22:53 UTC NOAA

FRESNO AIR TERMINAL, CA, United States (KFAT) 36-47N 119-43W 104M
Apr 13, 2021 - 06:53 PM EDT / 2021.04.13 2253 UTC
Wind: from the W (280 degrees) at 15 MPH (13 KT) gusting to 22 MPH (19 KT):0
Visibility: 10 mile(s):0
Sky conditions: mostly clear
Temperature: 78.1 F (25.6 C)
Dew Point: 32.0 F (0.0 C)
Relative Humidity: 18%
Pressure (altimeter): 29.76 in. Hg (1007 hPa)
ob: KFAT 132253Z 28013G19KT 10SM FEW095 26/00 A2976 RMK AO2 SLP073 T02560000
cycle: 23

Station Type Date Time Source
KFAT TAF 2021/04/13 22:42 UTC NOAA

TAF
AMD KFAT 132139Z 1322/1418 30010KT P6SM SKC
FM140200 30014G21KT P6SM SKC
FM140800 32011KT P6SM SKC
FM141400 VRB04KT P6SM SKC

Example: see airport list